Time;durP1;ratioP1;P1;durP2;ratioP2;P2;SDS_P1;SDS_P2;PMS_P1;PMS_P2;Temp;Humidity;BMP_temperature;BMP_pressure;BME280_temperature;BME280_humidity;BME280_pressure;Samples;Min_cycle;Max_cycle;Signal;HPM_P1;HPM_P2
2023/03/03 00:01:52;;;;;;;40.90;26.70;;;7.30;96.70;;;;;;4926510;29;20223;-80
2023/03/03 00:04:20;;;;;;;39.47;26.93;;;7.30;96.70;;;;;;4928252;29;20208;-80
2023/03/03 00:06:47;;;;;;;39.80;26.17;;;7.20;96.70;;;;;;4929695;29;20605;-80
2023/03/03 00:09:14;;;;;;;41.13;26.63;;;7.20;96.70;;;;;;4928095;29;20298;-80
2023/03/03 00:11:41;;;;;;;41.30;28.10;;;7.20;96.70;;;;;;4911632;29;20272;-83
2023/03/03 00:14:27;;;;;;;42.00;26.67;;;7.10;96.70;;;;;;4934787;29;20235;-80
2023/03/03 00:16:56;;;;;;;39.00;25.73;;;7.10;96.80;;;;;;4914034;29;20203;-80
2023/03/03 00:19:23;;;;;;;40.37;26.77;;;7.10;96.90;;;;;;4925775;29;20299;-80
2023/03/03 00:21:51;;;;;;;41.97;27.17;;;7.10;96.80;;;;;;4919860;29;20223;-80
2023/03/03 00:24:36;;;;;;;38.23;25.43;;;7.10;96.90;;;;;;4926620;29;20209;-80
2023/03/03 00:27:26;;;;;;;39.93;26.70;;;7.00;96.90;;;;;;4916133;29;20293;-80
2023/03/03 00:29:56;;;;;;;35.63;23.30;;;7.00;96.90;;;;;;4933294;29;20217;-80
2023/03/03 00:32:25;;;;;;;35.53;24.73;;;7.00;96.80;;;;;;4922747;29;20215;-80
2023/03/03 00:34:55;;;;;;;39.80;26.67;;;6.90;96.80;;;;;;4942892;29;20216;-81
2023/03/03 00:37:29;;;;;;;72.10;26.77;;;6.90;96.80;;;;;;4932109;29;20216;-80
2023/03/03 00:40:24;;;;;;;43.80;28.07;;;6.90;96.90;;;;;;4933456;29;20211;-80
2023/03/03 00:42:54;;;;;;;33.83;23.60;;;6.90;96.90;;;;;;4932110;29;20207;-80
2023/03/03 00:45:40;;;;;;;34.77;24.53;;;6.90;96.90;;;;;;4932946;29;20709;-80
2023/03/03 00:48:24;;;;;;;41.40;26.50;;;6.80;96.80;;;;;;4926149;29;20212;-80
2023/03/03 00:50:57;;;;;;;37.93;25.60;;;6.80;96.80;;;;;;4928261;29;20204;-80
2023/03/03 00:53:27;;;;;;;40.13;26.70;;;6.80;96.90;;;;;;4931471;29;20246;-79
2023/03/03 00:55:55;;;;;;;39.20;26.00;;;6.80;96.90;;;;;;4921501;29;20227;-80
2023/03/03 00:58:24;;;;;;;39.40;27.07;;;6.80;97.00;;;;;;4932903;29;20600;-80
2023/03/03 01:00:55;;;;;;;43.23;27.10;;;6.80;97.00;;;;;;4946176;29;20223;-80
2023/03/03 01:03:29;;;;;;;41.83;26.97;;;6.80;96.90;;;;;;4921868;29;20608;-80
2023/03/03 01:05:57;;;;;;;46.33;28.07;;;6.70;96.90;;;;;;4931468;29;20228;-80
2023/03/03 01:08:25;;;;;;;41.83;27.83;;;6.70;96.90;;;;;;4927885;29;20564;-80
2023/03/03 01:10:55;;;;;;;45.70;28.83;;;6.70;96.90;;;;;;4933052;29;20223;-80
2023/03/03 01:13:26;;;;;;;47.47;28.57;;;6.70;96.90;;;;;;4913434;29;20273;-80
2023/03/03 01:15:54;;;;;;;41.77;27.30;;;6.70;96.90;;;;;;4919333;29;20236;-80
2023/03/03 01:18:21;;;;;;;41.60;27.40;;;6.70;96.90;;;;;;4917846;29;20235;-80
2023/03/03 01:20:50;;;;;;;43.33;28.00;;;6.70;97.00;;;;;;4923340;29;20628;-80
2023/03/03 01:23:17;;;;;;;46.17;27.10;;;6.60;96.90;;;;;;4934069;29;20245;-80
2023/03/03 01:25:44;;;;;;;39.40;25.67;;;6.60;96.90;;;;;;4940991;28;20194;-80
2023/03/03 01:28:11;;;;;;;46.70;27.60;;;6.60;96.90;;;;;;4939041;29;20223;-81
2023/03/03 01:30:38;;;;;;;47.03;28.10;;;6.60;96.90;;;;;;4930604;29;20294;-81
2023/03/03 01:33:07;;;;;;;44.60;28.07;;;6.50;96.80;;;;;;4915793;29;20240;-82
2023/03/03 01:35:35;;;;;;;44.70;27.93;;;6.60;97.10;;;;;;4914326;29;20214;-81
2023/03/03 01:38:02;;;;;;;47.23;28.70;;;6.50;96.70;;;;;;4913478;29;20207;-78
2023/03/03 01:40:30;;;;;;;44.47;28.33;;;6.50;96.80;;;;;;4920082;29;20328;-79
2023/03/03 01:42:59;;;;;;;45.60;28.07;;;6.50;96.80;;;;;;4930756;29;20219;-79
2023/03/03 01:45:41;;;;;;;46.03;29.40;;;6.40;96.90;;;;;;4919577;29;20617;-80
2023/03/03 01:48:17;;;;;;;42.40;27.43;;;6.40;96.90;;;;;;4934442;29;20235;-79
2023/03/03 01:50:50;;;;;;;39.30;26.33;;;6.40;97.00;;;;;;4932932;29;20623;-79
2023/03/03 01:53:37;;;;;;;44.50;25.60;;;6.40;97.00;;;;;;4917637;29;20236;-79
2023/03/03 01:56:07;;;;;;;41.27;27.07;;;6.40;97.30;;;;;;4939934;29;20733;-79
2023/03/03 01:59:04;;;;;;;43.17;26.40;;;6.40;97.00;;;;;;4924527;29;20225;-79
2023/03/03 02:01:32;;;;;;;46.60;25.83;;;6.30;96.90;;;;;;4942783;29;20223;-79
2023/03/03 02:04:00;;;;;;;44.10;27.67;;;6.30;96.90;;;;;;4917293;29;20206;-80
2023/03/03 02:06:37;;;;;;;43.30;27.80;;;6.40;97.00;;;;;;4915273;29;20214;-80
2023/03/03 02:09:15;;;;;;;43.00;27.57;;;6.30;97.00;;;;;;4918087;29;20236;-79
2023/03/03 02:11:45;;;;;;;42.00;26.70;;;6.30;97.00;;;;;;4931251;29;20198;-80
2023/03/03 02:14:13;;;;;;;40.13;27.30;;;6.30;97.00;;;;;;4920065;29;20203;-80
2023/03/03 02:16:43;;;;;;;47.33;28.13;;;6.30;97.00;;;;;;4916429;29;20681;-80
2023/03/03 02:19:36;;;;;;;43.63;28.00;;;6.30;97.00;;;;;;4931800;29;20247;-81
2023/03/03 02:22:04;;;;;;;42.07;26.70;;;6.30;97.00;;;;;;4909902;29;20227;-80
2023/03/03 02:24:40;;;;;;;42.00;27.07;;;6.30;97.10;;;;;;4922945;29;20213;-80
2023/03/03 02:27:07;;;;;;;42.47;26.97;;;6.30;97.10;;;;;;4934048;29;20267;-80
2023/03/03 02:29:35;;;;;;;43.83;26.57;;;6.30;97.10;;;;;;4930860;29;20219;-80
2023/03/03 02:32:05;;;;;;;46.47;27.70;;;6.30;97.10;;;;;;4932736;29;20203;-80
2023/03/03 02:34:46;;;;;;;43.30;25.73;;;6.30;97.00;;;;;;4916441;29;20262;-80
2023/03/03 02:37:18;;;;;;;42.87;27.50;;;6.30;97.00;;;;;;4919949;29;20207;-80
2023/03/03 02:39:46;;;;;;;43.97;26.70;;;6.20;96.90;;;;;;4931802;29;20219;-80
2023/03/03 02:42:26;;;;;;;38.80;25.30;;;6.20;96.90;;;;;;4915008;29;20295;-80
2023/03/03 02:44:55;;;;;;;42.90;26.90;;;6.20;97.00;;;;;;4918277;29;20297;-81
2023/03/03 02:47:23;;;;;;;43.60;26.37;;;6.20;97.00;;;;;;4930539;29;20226;-80
2023/03/03 02:49:51;;;;;;;39.63;26.87;;;6.20;97.00;;;;;;4916391;29;20208;-80
2023/03/03 02:52:18;;;;;;;39.93;25.80;;;6.20;97.00;;;;;;4915689;29;20293;-80
2023/03/03 02:54:46;;;;;;;37.60;24.80;;;6.10;97.00;;;;;;4928321;29;20204;-80
2023/03/03 02:57:14;;;;;;;38.20;24.77;;;6.10;96.90;;;;;;4909102;29;21792;-80
2023/03/03 02:59:41;;;;;;;38.47;24.10;;;6.00;96.80;;;;;;4927614;29;20231;-80
2023/03/03 03:02:14;;;;;;;37.80;24.33;;;6.00;96.80;;;;;;4927424;29;20239;-80
2023/03/03 03:04:41;;;;;;;40.50;25.30;;;6.00;96.80;;;;;;4922745;29;20664;-80
2023/03/03 03:07:14;;;;;;;39.53;25.93;;;5.90;96.80;;;;;;4934033;29;20211;-80
2023/03/03 03:09:41;;;;;;;35.70;24.00;;;5.90;96.80;;;;;;4917568;29;20235;-81
2023/03/03 03:12:08;;;;;;;36.50;24.40;;;5.90;96.80;;;;;;4936762;28;20214;-80
2023/03/03 03:14:36;;;;;;;42.87;26.37;;;5.90;96.80;;;;;;4932980;29;20277;-80
2023/03/03 03:17:05;;;;;;;42.33;25.73;;;5.80;96.80;;;;;;4930901;29;20294;-80
2023/03/03 03:19:32;;;;;;;43.03;27.17;;;5.80;96.90;;;;;;4927849;29;20657;-80
2023/03/03 03:22:02;;;;;;;40.77;25.40;;;5.90;97.00;;;;;;4933219;29;20223;-80
2023/03/03 03:24:32;;;;;;;42.53;27.13;;;5.90;97.00;;;;;;4930683;29;20302;-80
2023/03/03 03:27:03;;;;;;;48.10;26.80;;;5.90;97.10;;;;;;4938316;29;20234;-80
2023/03/03 03:29:31;;;;;;;41.13;25.77;;;5.90;97.10;;;;;;4930724;29;20272;-80
2023/03/03 03:31:58;;;;;;;43.07;26.80;;;5.90;97.00;;;;;;4927784;29;20638;-80
2023/03/03 03:34:26;;;;;;;38.80;25.97;;;5.90;97.00;;;;;;4924022;29;20204;-80
2023/03/03 03:36:55;;;;;;;45.50;27.33;;;5.90;97.00;;;;;;4929884;29;20218;-80
2023/03/03 03:39:25;;;;;;;49.90;28.63;;;5.90;97.10;;;;;;4934391;29;20222;-81
2023/03/03 03:41:52;;;;;;;45.60;27.17;;;5.90;97.10;;;;;;4924584;29;20266;-80
2023/03/03 03:44:20;;;;;;;43.10;26.03;;;5.90;97.10;;;;;;4919248;29;20593;-80
2023/03/03 03:46:47;;;;;;;43.93;26.57;;;5.90;97.00;;;;;;4907949;29;20207;-80
2023/03/03 03:49:14;;;;;;;41.47;26.23;;;5.80;97.10;;;;;;4922833;29;20196;-80
2023/03/03 03:51:42;;;;;;;41.37;26.13;;;5.80;97.10;;;;;;4926331;29;20539;-80
2023/03/03 03:54:13;;;;;;;41.47;25.37;;;5.80;97.10;;;;;;4912264;29;20214;-80
2023/03/03 03:56:41;;;;;;;40.60;25.90;;;5.80;97.10;;;;;;4930761;29;20211;-80
2023/03/03 03:59:09;;;;;;;45.70;26.83;;;5.80;97.10;;;;;;4928271;29;20282;-80
2023/03/03 04:01:37;;;;;;;45.43;27.07;;;5.70;97.10;;;;;;4929475;29;21135;-81
2023/03/03 04:04:05;;;;;;;40.17;26.47;;;5.70;97.10;;;;;;4918951;29;20239;-80
2023/03/03 04:06:33;;;;;;;38.33;26.13;;;5.70;97.10;;;;;;4934036;29;20214;-80
2023/03/03 04:09:02;;;;;;;40.17;25.87;;;5.70;97.20;;;;;;4932791;29;20222;-80
2023/03/03 04:11:30;;;;;;;49.87;27.40;;;5.70;97.20;;;;;;4921288;29;20208;-80
2023/03/03 04:13:58;;;;;;;43.77;27.27;;;5.70;97.20;;;;;;4921578;29;20309;-80
2023/03/03 04:16:26;;;;;;;39.27;24.50;;;5.70;97.20;;;;;;4921887;29;20216;-80
2023/03/03 04:18:54;;;;;;;38.63;23.57;;;5.70;97.20;;;;;;4932429;29;20277;-80
2023/03/03 04:21:21;;;;;;;34.13;22.80;;;5.70;97.20;;;;;;4929882;29;20255;-80
2023/03/03 04:23:50;;;;;;;38.00;23.47;;;5.70;97.10;;;;;;4922884;29;20632;-80
2023/03/03 04:26:17;;;;;;;37.40;24.77;;;5.60;96.90;;;;;;4937794;29;20257;-80
2023/03/03 04:28:46;;;;;;;34.33;23.50;;;5.60;96.80;;;;;;4941947;29;20293;-80
2023/03/03 04:31:13;;;;;;;36.47;23.37;;;5.50;96.80;;;;;;4926666;29;20630;-80
2023/03/03 04:33:41;;;;;;;41.13;23.80;;;5.40;96.70;;;;;;4928915;29;20214;-80
2023/03/03 04:36:08;;;;;;;34.27;22.00;;;5.30;96.70;;;;;;4933294;29;20215;-80
2023/03/03 04:38:37;;;;;;;36.97;24.03;;;5.30;96.70;;;;;;4922156;29;20231;-80
2023/03/03 04:41:04;;;;;;;33.67;22.17;;;5.20;96.80;;;;;;4915437;29;20211;-80
2023/03/03 04:43:35;;;;;;;41.37;24.97;;;5.20;96.80;;;;;;4931512;29;20204;-80
2023/03/03 04:46:04;;;;;;;38.80;24.33;;;5.20;96.80;;;;;;4931001;29;20207;-80
2023/03/03 04:48:32;;;;;;;35.77;22.80;;;5.20;96.80;;;;;;4931125;29;20606;-80
2023/03/03 04:50:59;;;;;;;41.53;24.30;;;5.20;96.90;;;;;;4917806;29;20523;-80
2023/03/03 04:53:27;;;;;;;36.93;23.53;;;5.20;96.90;;;;;;4938247;29;20218;-81
2023/03/03 04:55:54;;;;;;;37.03;23.77;;;5.20;96.90;;;;;;4917889;29;20275;-80
2023/03/03 04:58:22;;;;;;;38.30;23.30;;;5.10;96.80;;;;;;4929455;29;20589;-79
2023/03/03 05:00:56;;;;;;;38.20;21.20;;;5.10;96.80;;;;;;4940561;29;20211;-80
2023/03/03 05:03:26;;;;;;;37.33;22.83;;;5.10;96.80;;;;;;4919700;29;20208;-80
2023/03/03 05:05:54;;;;;;;39.33;23.10;;;5.10;96.80;;;;;;4929444;29;20666;-80
2023/03/03 05:08:21;;;;;;;39.07;22.90;;;5.10;96.80;;;;;;4919278;29;20220;-80
2023/03/03 05:10:53;;;;;;;43.40;25.87;;;5.00;96.80;;;;;;4932005;29;20207;-80
2023/03/03 05:13:20;;;;;;;35.57;22.00;;;5.00;96.80;;;;;;4917803;29;20215;-80
2023/03/03 05:15:51;;;;;;;42.53;24.87;;;5.00;96.90;;;;;;4925290;29;20578;-80
2023/03/03 05:18:19;;;;;;;38.50;22.90;;;5.00;96.90;;;;;;4933993;29;20262;-80
2023/03/03 05:20:47;;;;;;;35.23;21.90;;;5.00;96.80;;;;;;4927449;29;20274;-80
2023/03/03 05:23:14;;;;;;;38.23;23.43;;;4.90;96.70;;;;;;4934469;29;20652;-79
2023/03/03 05:25:43;;;;;;;38.97;23.67;;;4.90;96.80;;;;;;4920242;29;20206;-80
2023/03/03 05:28:10;;;;;;;36.90;23.53;;;4.90;96.80;;;;;;4920956;29;20210;-80
2023/03/03 05:30:38;;;;;;;40.27;24.87;;;4.90;96.90;;;;;;4933634;29;20215;-80
2023/03/03 05:33:05;;;;;;;49.10;25.87;;;4.90;96.90;;;;;;4920865;29;20242;-80
2023/03/03 05:35:33;;;;;;;42.03;26.37;;;4.90;97.00;;;;;;4933429;29;20211;-79
2023/03/03 05:38:02;;;;;;;45.40;26.60;;;4.90;97.00;;;;;;4928074;29;20317;-80
2023/03/03 05:40:31;;;;;;;38.63;24.83;;;4.90;97.00;;;;;;4914087;29;20215;-80
2023/03/03 05:42:59;;;;;;;43.83;26.03;;;4.90;97.00;;;;;;4916503;29;20434;-80
2023/03/03 05:45:26;;;;;;;44.13;26.60;;;4.90;97.00;;;;;;4918771;29;20216;-80
2023/03/03 05:47:54;;;;;;;42.67;25.30;;;4.90;97.00;;;;;;4927913;29;20629;-80
2023/03/03 05:50:22;;;;;;;51.73;26.97;;;4.90;97.10;;;;;;4929796;29;20218;-80
2023/03/03 05:52:50;;;;;;;43.07;25.03;;;4.90;97.10;;;;;;4919437;29;20207;-79
2023/03/03 05:55:18;;;;;;;42.07;25.53;;;4.90;97.10;;;;;;4909702;29;20207;-81
2023/03/03 05:57:46;;;;;;;53.47;26.93;;;4.90;97.10;;;;;;4920396;29;20208;-81
2023/03/03 06:00:17;;;;;;;41.20;24.20;;;4.90;97.10;;;;;;4919237;29;20265;-80
2023/03/03 06:02:45;;;;;;;43.07;26.13;;;4.90;97.10;;;;;;4933950;29;20219;-81
2023/03/03 06:05:12;;;;;;;38.40;24.67;;;4.90;97.10;;;;;;4927374;29;20208;-81
2023/03/03 06:07:40;;;;;;;42.17;26.37;;;4.90;97.00;;;;;;4934003;29;20629;-81
2023/03/03 06:10:07;;;;;;;41.23;25.10;;;4.90;97.00;;;;;;4923462;29;20202;-81
2023/03/03 06:12:38;;;;;;;40.20;24.07;;;4.90;97.00;;;;;;4915929;29;20187;-81
2023/03/03 06:15:06;;;;;;;43.70;25.77;;;4.90;96.90;;;;;;4932424;29;20225;-81
2023/03/03 06:17:34;;;;;;;41.50;24.80;;;4.90;97.00;;;;;;4927591;29;20275;-81
2023/03/03 06:20:03;;;;;;;43.20;26.17;;;4.90;97.00;;;;;;4935275;29;20221;-81
2023/03/03 06:22:30;;;;;;;44.70;24.07;;;4.90;97.10;;;;;;4934376;29;20536;-81
2023/03/03 06:24:57;;;;;;;41.23;25.77;;;4.90;97.20;;;;;;4937729;29;20300;-81
2023/03/03 06:27:31;;;;;;;42.83;26.20;;;5.00;97.20;;;;;;4916125;29;20554;-81
2023/03/03 06:29:59;;;;;;;42.07;24.73;;;5.00;97.10;;;;;;4930421;29;20290;-81
2023/03/03 06:32:26;;;;;;;41.87;26.27;;;5.00;97.10;;;;;;4933732;29;20211;-81
2023/03/03 06:35:05;;;;;;;39.70;25.10;;;5.00;97.00;;;;;;4931498;29;20257;-81
2023/03/03 06:37:33;;;;;;;43.50;25.33;;;5.10;97.00;;;;;;4935627;29;20225;-81
2023/03/03 06:40:05;;;;;;;41.73;26.13;;;5.10;97.00;;;;;;4932931;29;20205;-81
2023/03/03 06:42:35;;;;;;;46.70;25.00;;;5.10;97.10;;;;;;4913633;29;20248;-81
2023/03/03 06:45:42;;;;;;;40.07;22.27;;;5.20;97.10;;;;;;4935831;29;20285;-81
2023/03/03 06:48:09;;;;;;;37.97;23.23;;;5.20;97.10;;;;;;4928836;29;20211;-81
2023/03/03 06:50:38;;;;;;;42.97;25.07;;;5.30;97.10;;;;;;4934000;29;20273;-81
2023/03/03 06:53:14;;;;;;;44.17;27.20;;;5.40;97.00;;;;;;4924063;29;20233;-81
2023/03/03 06:55:43;;;;;;;44.70;26.67;;;5.50;97.00;;;;;;4938674;28;20228;-81
2023/03/03 06:58:14;;;;;;;44.10;24.33;;;5.60;97.10;;;;;;4937248;29;20214;-81
2023/03/03 07:00:44;;;;;;;43.33;25.73;;;5.70;97.10;;;;;;4933797;29;20305;-79
2023/03/03 07:03:17;;;;;;;44.10;27.53;;;5.70;97.20;;;;;;4936476;29;20313;-79
2023/03/03 07:05:45;;;;;;;46.83;28.13;;;5.80;97.20;;;;;;4922752;29;20352;-78
2023/03/03 07:08:16;;;;;;;46.27;26.30;;;6.00;97.20;;;;;;4922465;29;20269;-79
2023/03/03 07:10:44;;;;;;;46.50;27.23;;;6.10;97.20;;;;;;4915123;29;20207;-79
2023/03/03 07:13:32;;;;;;;46.40;27.83;;;6.20;97.20;;;;;;4917843;29;20561;-79
2023/03/03 07:16:10;;;;;;;44.87;27.40;;;6.40;97.30;;;;;;4935352;29;20210;-79
2023/03/03 07:18:53;;;;;;;43.93;28.47;;;6.60;97.30;;;;;;4925446;29;20238;-79
2023/03/03 07:21:24;;;;;;;41.53;27.50;;;6.80;97.30;;;;;;4933786;29;20225;-79
2023/03/03 07:23:53;;;;;;;41.13;25.33;;;7.00;97.20;;;;;;4932193;29;20199;-80
2023/03/03 07:26:31;;;;;;;39.57;26.73;;;7.30;97.00;;;;;;4928927;29;20211;-79
2023/03/03 07:29:00;;;;;;;41.10;26.23;;;7.60;96.70;;;;;;4925177;29;20261;-80
2023/03/03 07:31:35;;;;;;;40.80;26.07;;;7.80;96.40;;;;;;4942721;29;20203;-80
2023/03/03 07:34:34;;;;;;;39.30;25.20;;;8.00;96.10;;;;;;4921862;29;20210;-80
2023/03/03 07:37:15;;;;;;;43.00;26.33;;;8.10;96.00;;;;;;4925332;29;20255;-80
2023/03/03 07:39:49;;;;;;;38.60;25.67;;;8.30;95.60;;;;;;4937500;29;20224;-80
2023/03/03 07:42:27;;;;;;;42.77;27.43;;;8.40;95.50;;;;;;4936141;29;20230;-80
2023/03/03 07:45:28;;;;;;;36.83;23.93;;;8.60;95.50;;;;;;4930090;29;20586;-79
2023/03/03 07:48:20;;;;;;;35.13;25.03;;;8.70;95.50;;;;;;4940523;29;20234;-82
2023/03/03 07:50:48;;;;;;;38.63;24.53;;;8.90;95.40;;;;;;4935815;29;20231;-79
2023/03/03 07:53:28;;;;;;;35.73;24.07;;;9.00;95.20;;;;;;4937121;29;20213;-80
2023/03/03 07:55:56;;;;;;;36.33;24.70;;;9.10;95.10;;;;;;4937003;29;20205;-79
2023/03/03 07:58:42;;;;;;;37.13;25.43;;;9.30;95.00;;;;;;4937212;29;21126;-80
2023/03/03 08:01:38;;;;;;;35.13;24.50;;;9.50;95.00;;;;;;4929920;29;20288;-79
2023/03/03 08:04:19;;;;;;;34.50;23.70;;;9.60;94.70;;;;;;4924876;29;20212;-80
2023/03/03 08:06:52;;;;;;;32.10;23.13;;;9.70;94.40;;;;;;4934097;29;20196;-80
2023/03/03 08:09:35;;;;;;;33.10;23.50;;;9.80;94.20;;;;;;4932075;29;20211;-81
2023/03/03 08:12:05;;;;;;;33.73;23.03;;;9.80;94.10;;;;;;4928762;29;20215;-81
2023/03/03 08:14:35;;;;;;;34.20;22.27;;;9.80;94.00;;;;;;4938554;29;20315;-80
2023/03/03 08:17:38;;;;;;;35.17;23.30;;;9.90;93.90;;;;;;4935407;29;20234;-81
2023/03/03 08:20:33;;;;;;;37.03;23.40;;;9.90;93.80;;;;;;4915104;29;20661;-81
2023/03/03 08:23:01;;;;;;;34.17;22.93;;;9.80;93.70;;;;;;4936096;29;20222;-81
2023/03/03 08:25:28;;;;;;;34.67;23.30;;;9.80;93.60;;;;;;4934225;29;20211;-80
2023/03/03 08:27:55;;;;;;;33.60;22.53;;;9.70;93.60;;;;;;4920218;29;20285;-79
2023/03/03 08:30:23;;;;;;;37.67;24.03;;;9.70;93.70;;;;;;4933616;29;20233;-80
2023/03/03 08:32:50;;;;;;;37.53;24.30;;;9.70;93.80;;;;;;4921813;29;20206;-80
2023/03/03 08:35:18;;;;;;;38.37;24.73;;;9.70;94.00;;;;;;4931362;29;20264;-80
2023/03/03 08:37:48;;;;;;;34.47;23.40;;;9.70;94.10;;;;;;4924824;29;20614;-80
2023/03/03 08:40:15;;;;;;;34.90;22.87;;;9.80;94.30;;;;;;4920403;29;20207;-80
2023/03/03 08:42:42;;;;;;;35.17;22.87;;;9.90;94.40;;;;;;4920343;29;20250;-80
2023/03/03 08:45:10;;;;;;;36.40;23.90;;;9.90;94.40;;;;;;4937013;29;20296;-81
2023/03/03 08:47:38;;;;;;;35.67;23.80;;;10.00;94.40;;;;;;4932353;29;20276;-79
2023/03/03 08:50:06;;;;;;;38.17;25.27;;;10.10;94.40;;;;;;4921824;29;20298;-80
2023/03/03 08:52:33;;;;;;;36.37;24.73;;;10.30;94.40;;;;;;4918499;29;20505;-81
2023/03/03 08:55:00;;;;;;;38.13;23.70;;;10.40;94.40;;;;;;4930244;29;20211;-80
2023/03/03 08:57:28;;;;;;;40.03;24.67;;;10.50;94.20;;;;;;4935104;29;20523;-80
2023/03/03 08:59:57;;;;;;;38.00;24.50;;;10.70;94.00;;;;;;4939838;29;20206;-80
2023/03/03 09:02:25;;;;;;;34.30;24.30;;;10.70;93.70;;;;;;4915312;29;20226;-80
2023/03/03 09:04:52;;;;;;;38.30;23.60;;;10.80;93.60;;;;;;4930907;29;20227;-81
2023/03/03 09:07:19;;;;;;;38.27;24.73;;;10.90;93.50;;;;;;4922253;29;20293;-80
2023/03/03 09:09:47;;;;;;;37.50;24.87;;;11.00;93.40;;;;;;4934806;29;20241;-81
2023/03/03 09:12:27;;;;;;;31.93;23.43;;;11.10;93.30;;;;;;4920882;29;20230;-81
2023/03/03 09:15:01;;;;;;;34.20;24.77;;;11.30;93.10;;;;;;4937516;29;20309;-81
2023/03/03 09:17:32;;;;;;;31.93;24.23;;;11.40;92.90;;;;;;4936631;29;20288;-80
2023/03/03 09:20:23;;;;;;;37.67;26.27;;;11.50;92.60;;;;;;4907599;29;20216;-81
2023/03/03 09:22:50;;;;;;;37.93;25.90;;;11.60;92.20;;;;;;4906963;29;20226;-81
2023/03/03 09:25:32;;;;;;;36.90;26.33;;;11.60;91.90;;;;;;4911716;29;20227;-81
2023/03/03 09:28:01;;;;;;;65.13;35.00;;;11.60;91.70;;;;;;4918726;29;20240;-80
2023/03/03 09:30:39;;;;;;;42.63;27.53;;;11.70;91.60;;;;;;4892164;29;20212;-83
2023/03/03 09:33:39;;;;;;;39.27;26.67;;;11.70;91.90;;;;;;4903027;29;20649;-81
2023/03/03 09:36:22;;;;;;;44.33;29.83;;;11.70;91.60;;;;;;4894460;29;20216;-81
2023/03/03 09:38:49;;;;;;;46.17;32.37;;;11.80;91.70;;;;;;4912924;29;20212;-81
2023/03/03 09:41:44;;;;;;;46.43;29.83;;;11.80;91.50;;;;;;4900020;29;20242;-83
2023/03/03 09:44:24;;;;;;;41.93;28.27;;;11.90;91.30;;;;;;4872603;29;20308;-81
2023/03/03 09:47:04;;;;;;;40.10;28.33;;;12.00;91.20;;;;;;4910026;29;20251;-80
2023/03/03 09:49:35;;;;;;;40.67;28.70;;;12.10;91.40;;;;;;4911344;29;20297;-82
2023/03/03 09:52:25;;;;;;;37.13;27.47;;;12.30;91.30;;;;;;4913840;29;20250;-82
2023/03/03 09:55:14;;;;;;;41.60;27.77;;;12.50;90.80;;;;;;4901912;29;20646;-81
2023/03/03 09:58:05;;;;;;;41.70;28.87;;;12.70;90.50;;;;;;4911083;29;20211;-80
2023/03/03 10:01:06;;;;;;;41.27;26.93;;;12.90;90.20;;;;;;4909992;29;20219;-80
2023/03/03 10:03:52;;;;;;;40.57;29.40;;;13.10;89.30;;;;;;4910904;29;20232;-81
2023/03/03 10:06:47;;;;;;;40.23;27.93;;;13.30;88.70;;;;;;4894000;29;20207;-80
2023/03/03 10:09:36;;;;;;;40.80;28.70;;;13.40;88.00;;;;;;4899419;29;20238;-81
2023/03/03 10:12:12;;;;;;;40.00;27.60;;;13.50;87.50;;;;;;4915976;29;20223;-80
2023/03/03 10:15:02;;;;;;;39.83;28.77;;;13.70;86.60;;;;;;4905405;29;20204;-80
2023/03/03 10:17:39;;;;;;;36.53;26.87;;;13.80;86.30;;;;;;4921312;29;20243;-84
2023/03/03 10:20:36;;;;;;;37.20;28.87;;;13.90;85.70;;;;;;4926147;29;20279;-81
2023/03/03 10:23:37;;;;;;;36.20;27.10;;;13.90;83.80;;;;;;4908775;29;20255;-80
2023/03/03 10:26:40;;;;;;;39.07;28.87;;;14.00;83.60;;;;;;4910948;29;20219;-83
2023/03/03 10:29:35;;;;;;;43.13;28.40;;;14.10;81.10;;;;;;4909287;29;20207;-81
2023/03/03 10:32:24;;;;;;;36.90;27.83;;;14.10;81.00;;;;;;4911208;29;20558;-81
2023/03/03 10:35:23;;;;;;;37.37;27.20;;;14.10;81.30;;;;;;4908952;29;20307;-81
2023/03/03 10:38:13;;;;;;;36.77;25.67;;;14.20;81.30;;;;;;4903285;29;20211;-81
2023/03/03 10:40:56;;;;;;;35.70;27.10;;;14.30;81.10;;;;;;4916735;29;20204;-80
2023/03/03 10:43:51;;;;;;;38.17;26.87;;;14.40;82.00;;;;;;4932380;29;20753;-82
2023/03/03 10:46:33;;;;;;;33.20;24.90;;;14.60;81.40;;;;;;4911467;29;20725;-80
2023/03/03 10:49:07;;;;;;;35.97;25.23;;;14.70;81.20;;;;;;4898040;29;20208;-79
2023/03/03 10:52:07;;;;;;;31.40;22.80;;;14.90;80.80;;;;;;4909358;29;20222;-80
2023/03/03 10:54:46;;;;;;;37.37;25.87;;;15.00;79.20;;;;;;4898944;29;20291;-80
2023/03/03 10:57:40;;;;;;;45.00;33.33;;;15.10;78.50;;;;;;4898338;29;20199;-80
2023/03/03 11:00:22;;;;;;;32.37;23.17;;;15.20;78.20;;;;;;4898863;29;20204;-80
2023/03/03 11:03:27;;;;;;;61.73;36.77;;;15.40;77.50;;;;;;4915185;29;20269;-82
2023/03/03 11:06:03;;;;;;;31.27;23.47;;;15.50;75.00;;;;;;4911630;29;20234;-79
2023/03/03 11:08:40;;;;;;;34.63;25.97;;;15.50;74.70;;;;;;4917412;29;20202;-80
2023/03/03 11:11:35;;;;;;;31.80;23.00;;;15.50;75.10;;;;;;4900894;29;20563;-80
2023/03/03 11:14:11;;;;;;;125.63;74.40;;;15.60;73.40;;;;;;4907224;29;20207;-82
2023/03/03 11:16:48;;;;;;;184.47;103.63;;;15.60;73.00;;;;;;4902912;29;20276;-80
2023/03/03 11:19:19;;;;;;;35.70;23.67;;;15.60;73.30;;;;;;4925786;29;20253;-80
2023/03/03 11:22:09;;;;;;;59.93;34.37;;;15.60;74.60;;;;;;4934683;29;20207;-81
2023/03/03 11:24:55;;;;;;;72.80;41.27;;;15.70;71.00;;;;;;4935599;29;20236;-84
2023/03/03 11:27:38;;;;;;;36.03;24.97;;;15.70;70.70;;;;;;4936128;29;20551;-80
2023/03/03 11:30:28;;;;;;;43.90;29.43;;;15.60;70.70;;;;;;4935000;29;20215;-82
2023/03/03 11:33:04;;;;;;;31.10;21.00;;;15.60;71.70;;;;;;4927730;29;20309;-80
2023/03/03 11:35:43;;;;;;;29.73;19.80;;;15.70;71.10;;;;;;4928454;29;20531;-82
2023/03/03 11:38:35;;;;;;;22.00;17.40;;;15.80;71.30;;;;;;4938767;29;20207;-79
2023/03/03 11:41:32;;;;;;;29.70;21.30;;;15.80;69.10;;;;;;4927784;29;20216;-79
2023/03/03 11:44:26;;;;;;;92.10;38.40;;;15.90;70.20;;;;;;4929504;29;20230;-80
2023/03/03 11:47:40;;;;;;;21.87;16.00;;;16.00;66.40;;;;;;4915957;29;20199;-79
2023/03/03 11:50:30;;;;;;;35.20;23.77;;;15.90;66.20;;;;;;4924353;29;20242;-81
2023/03/03 11:53:12;;;;;;;29.47;20.20;;;15.80;66.20;;;;;;4937629;29;20211;-80
2023/03/03 11:55:44;;;;;;;23.83;17.60;;;15.80;66.80;;;;;;4933910;29;20274;-80
2023/03/03 11:58:40;;;;;;;24.70;15.53;;;15.80;66.70;;;;;;4931997;29;20666;-81
2023/03/03 12:01:19;;;;;;;23.50;15.23;;;15.80;67.10;;;;;;4919399;29;20275;-78
2023/03/03 12:03:57;;;;;;;22.77;16.60;;;15.90;65.80;;;;;;4942972;29;20222;-81
2023/03/03 12:06:33;;;;;;;20.43;14.97;;;15.80;65.90;;;;;;4940892;29;20223;-82
2023/03/03 12:09:18;;;;;;;19.80;14.33;;;15.80;64.20;;;;;;4932451;29;20205;-80
2023/03/03 12:11:48;;;;;;;21.60;14.97;;;15.70;65.00;;;;;;4924492;29;20230;-78
2023/03/03 12:14:54;;;;;;;22.93;15.07;;;15.70;64.50;;;;;;4932190;29;20204;-79
2023/03/03 12:17:54;;;;;;;20.10;15.40;;;15.70;64.50;;;;;;4930024;29;20227;-79
2023/03/03 12:20:47;;;;;;;18.83;14.93;;;15.80;65.30;;;;;;4929963;29;20624;-79
2023/03/03 12:23:29;;;;;;;21.13;16.03;;;15.90;66.10;;;;;;4926933;29;20679;-79
2023/03/03 12:26:18;;;;;;;22.23;15.03;;;16.10;66.30;;;;;;4931757;29;20302;-81
2023/03/03 12:28:58;;;;;;;23.17;15.73;;;16.20;64.10;;;;;;4937877;29;20569;-81
2023/03/03 12:31:37;;;;;;;25.07;18.53;;;16.20;63.40;;;;;;4928924;29;20207;-83
2023/03/03 12:34:14;;;;;;;26.57;17.07;;;16.10;64.20;;;;;;4931883;29;20294;-80
2023/03/03 12:36:44;;;;;;;23.60;17.30;;;16.00;63.40;;;;;;4929842;29;20225;-79
2023/03/03 12:39:18;;;;;;;22.87;18.10;;;16.00;63.90;;;;;;4937279;29;20213;-79
2023/03/03 12:42:11;;;;;;;22.20;17.60;;;16.00;64.80;;;;;;4927310;29;20308;-79
2023/03/03 12:45:00;;;;;;;22.93;17.50;;;16.10;64.70;;;;;;4918373;29;20536;-82
2023/03/03 12:47:49;;;;;;;26.83;19.20;;;16.10;65.70;;;;;;4922491;29;20208;-80
2023/03/03 12:50:26;;;;;;;27.13;19.17;;;16.10;64.90;;;;;;4918711;29;20203;-82
2023/03/03 12:53:11;;;;;;;22.90;17.33;;;16.00;65.30;;;;;;4926124;29;20201;-81
2023/03/03 12:55:53;;;;;;;21.63;17.50;;;16.10;64.40;;;;;;4927801;29;20227;-79
2023/03/03 12:58:29;;;;;;;21.63;16.60;;;16.00;63.60;;;;;;4924480;29;20223;-80
2023/03/03 13:00:59;;;;;;;24.80;17.90;;;16.00;64.10;;;;;;4932387;29;20636;-79
2023/03/03 13:03:51;;;;;;;22.57;16.73;;;16.10;64.60;;;;;;4928081;29;20229;-81
2023/03/03 13:06:33;;;;;;;19.70;15.83;;;16.30;65.00;;;;;;4936320;29;20219;-82
2023/03/03 13:09:27;;;;;;;22.13;16.00;;;16.30;64.50;;;;;;4929352;29;20203;-80
2023/03/03 13:12:16;;;;;;;22.27;16.43;;;16.30;63.60;;;;;;4940381;29;20245;-82
2023/03/03 13:14:56;;;;;;;22.10;17.00;;;16.20;62.60;;;;;;4931753;29;20218;-80